createdAt,value
2019-04-23T00:00:23.578Z,48.85
2019-04-23T00:02:44.397Z,48.62
2019-04-23T00:05:27.246Z,49.64
2019-04-23T00:10:25.659Z,49.06
2019-04-23T00:13:02.275Z,48.45
2019-04-23T00:15:26.633Z,49.06
2019-04-23T00:18:00.463Z,47.40
2019-04-23T00:20:32.470Z,48.40
2019-04-23T00:23:11.423Z,49.73
2019-04-23T00:25:53.772Z,49.71
2019-04-23T00:28:31.382Z,49.63
2019-04-23T00:30:58.189Z,49.05
2019-04-23T00:35:55.239Z,48.17
2019-04-23T00:38:33.909Z,48.10
2019-04-23T00:41:02.840Z,46.83
2019-04-23T00:45:59.418Z,48.91
2019-04-23T00:48:45.596Z,49.02
2019-04-23T00:51:01.997Z,48.65
2019-04-23T00:53:37.146Z,49.33
2019-04-23T00:56:26.702Z,48.15
2019-04-23T01:01:11.141Z,48.68
2019-04-23T01:03:48.577Z,47.94
2019-04-23T01:06:21.046Z,47.56
2019-04-23T01:08:50.860Z,48.74
2019-04-23T01:11:20.430Z,48.98
2019-04-23T01:16:22.807Z,47.07
2019-04-23T01:19:33.667Z,47.34
2019-04-23T01:21:43.287Z,47.68
2019-04-23T01:24:32.477Z,48.74
2019-04-23T01:28:04.247Z,48.16
2019-04-23T01:30:13.978Z,48.08
2019-04-23T01:32:44.103Z,48.23
2019-04-23T01:35:20.353Z,47.00
2019-04-23T01:37:47.702Z,48.25
2019-04-23T01:40:28.922Z,48.07
2019-04-23T01:42:49.328Z,47.36
2019-04-23T01:45:25.960Z,47.93
2019-04-23T01:47:54.923Z,48.07
2019-04-23T01:53:12.290Z,49.25
2019-04-23T01:55:36.207Z,49.48
2019-04-23T01:58:20.560Z,49.10
2019-04-23T02:03:09.386Z,48.83
2019-04-23T02:05:41.334Z,49.30
2019-04-23T02:08:15.659Z,47.38
2019-04-23T02:10:53.629Z,48.61
2019-04-23T02:13:27.248Z,48.58
2019-04-23T02:16:06.716Z,48.22
2019-04-23T02:18:20.591Z,48.57
2019-04-23T02:21:00.695Z,49.32
2019-04-23T02:23:46.401Z,48.39
2019-04-23T02:26:12.895Z,47.65
2019-04-23T02:28:55.761Z,48.83
2019-04-23T02:31:35.795Z,47.34
2019-04-23T02:34:00.614Z,48.69
2019-04-23T02:36:25.805Z,48.58
2019-04-23T02:39:00.967Z,48.09
2019-04-23T02:41:41.383Z,47.42
2019-04-23T02:44:04.840Z,47.76
2019-04-23T02:46:54.265Z,48.68
2019-04-23T02:49:04.967Z,48.10
2019-04-23T02:51:35.271Z,47.36
2019-04-23T02:54:08.571Z,47.94
2019-04-23T02:56:51.083Z,48.04
2019-04-23T03:02:09.506Z,48.36
2019-04-23T03:04:17.476Z,48.82
2019-04-23T03:06:45.943Z,49.32
2019-04-23T03:09:23.612Z,48.83
2019-04-23T03:11:52.249Z,49.24
2019-04-23T03:14:29.093Z,48.18
2019-04-23T03:17:00.271Z,48.59
2019-04-23T03:22:26.372Z,48.53
2019-04-23T03:25:12.931Z,48.42
2019-04-23T03:27:37.406Z,49.06
2019-04-23T03:30:16.271Z,48.79
2019-04-23T03:35:55.168Z,47.72
2019-04-23T03:40:13.824Z,48.01
2019-04-23T03:42:47.688Z,47.86
2019-04-23T03:45:25.554Z,47.83
2019-04-23T03:47:48.999Z,47.15
2019-04-23T03:50:37.096Z,47.42
2019-04-23T03:52:51.049Z,47.54
2019-04-23T03:57:52.362Z,47.69
2019-04-23T04:00:39.733Z,46.95
2019-04-23T04:03:10.835Z,46.93
2019-04-23T04:05:40.035Z,46.39
2019-04-23T04:08:20.273Z,46.26
2019-04-23T04:10:50.332Z,46.76
2019-04-23T04:13:07.014Z,45.63
2019-04-23T04:20:49.341Z,46.55
2019-04-23T04:23:22.689Z,46.79
2019-04-23T04:25:48.691Z,46.12
2019-04-23T04:28:28.842Z,46.26
2019-04-23T04:31:10.036Z,45.18
2019-04-23T04:36:01.011Z,45.16
2019-04-23T04:41:01.230Z,45.88
2019-04-23T04:43:47.600Z,46.20
2019-04-23T04:46:14.901Z,46.77
2019-04-23T04:48:56.500Z,46.11
2019-04-23T04:56:16.770Z,46.53
2019-04-23T05:01:13.802Z,46.44
2019-04-23T05:03:57.913Z,45.59
2019-04-23T05:16:19.312Z,45.46
2019-04-23T05:19:02.583Z,45.14
2019-04-23T05:21:26.938Z,45.21
2019-04-23T05:26:30.375Z,44.81
2019-04-23T05:29:04.825Z,44.81
2019-04-23T05:31:45.038Z,44.62
2019-04-23T05:41:36.862Z,43.51
2019-04-23T05:44:17.163Z,43.63
2019-04-23T05:46:36.642Z,42.94
2019-04-23T05:49:10.942Z,44.45
2019-04-23T05:51:50.887Z,43.53
2019-04-23T05:54:19.089Z,43.92
2019-04-23T05:56:49.017Z,42.15
2019-04-23T05:59:18.146Z,43.17
2019-04-23T06:04:24.619Z,41.76
2019-04-23T06:09:25.310Z,43.04
2019-04-23T06:14:32.932Z,43.57
2019-04-23T06:17:04.659Z,44.10
2019-04-23T06:19:24.704Z,43.97
2019-04-23T06:24:55.166Z,44.32
2019-04-23T06:27:13.565Z,43.90
2019-04-23T06:29:44.947Z,42.70
2019-04-23T06:32:13.214Z,41.28
2019-04-23T06:34:41.177Z,43.50
2019-04-23T06:37:18.428Z,43.51
2019-04-23T06:39:48.298Z,42.76
2019-04-23T06:42:17.687Z,42.81
2019-04-23T06:47:23.527Z,43.96
2019-04-23T06:49:55.681Z,44.17
2019-04-23T06:52:30.176Z,43.95
2019-04-23T06:55:01.170Z,44.02
2019-04-23T06:57:27.084Z,43.48
2019-04-23T07:02:39.222Z,43.70
2019-04-23T07:05:12.162Z,43.79
2019-04-23T07:10:16.575Z,43.79
2019-04-23T07:12:42.968Z,44.37
2019-04-23T07:15:30.864Z,43.91
2019-04-23T07:17:46.169Z,43.88
2019-04-23T07:22:49.982Z,44.07
2019-04-23T07:25:22.105Z,42.45
2019-04-23T07:27:47.378Z,41.94
2019-04-23T07:32:57.158Z,43.12
2019-04-23T07:35:21.201Z,44.07
2019-04-23T07:38:09.283Z,43.21
2019-04-23T07:40:54.378Z,43.10
2019-04-23T07:43:46.238Z,43.56
2019-04-23T07:46:30.646Z,43.22
2019-04-23T07:48:49.131Z,43.28
2019-04-23T07:51:27.703Z,43.66
2019-04-23T07:54:06.273Z,43.59
2019-04-23T07:56:31.870Z,43.71
2019-04-23T07:59:05.749Z,43.64
2019-04-23T08:01:29.755Z,43.64
2019-04-23T08:04:01.825Z,42.59
2019-04-23T08:06:29.657Z,42.79
2019-04-23T08:09:10.952Z,42.75
2019-04-23T08:14:30.150Z,43.89
2019-04-23T08:19:16.989Z,43.07
2019-04-23T08:21:43.882Z,43.24
2019-04-23T08:24:48.612Z,43.54
2019-04-23T08:27:18.192Z,43.68
2019-04-23T08:29:44.517Z,43.02
2019-04-23T08:32:29.499Z,42.77
2019-04-23T08:35:10.915Z,42.48
2019-04-23T08:37:58.468Z,42.48
2019-04-23T08:39:52.663Z,41.99
2019-04-23T08:42:42.773Z,41.68
2019-04-23T08:45:29.631Z,41.52
2019-04-23T08:48:21.531Z,42.25
2019-04-23T08:51:07.478Z,42.85
2019-04-23T08:55:50.143Z,42.23
2019-04-23T09:03:27.684Z,41.79
2019-04-23T09:05:57.686Z,41.33
2019-04-23T09:11:04.684Z,40.94
2019-04-23T09:16:08.660Z,40.87
2019-04-23T09:18:32.714Z,41.29
2019-04-23T09:21:07.347Z,41.51
2019-04-23T09:23:39.174Z,40.65
2019-04-23T09:26:20.564Z,41.33
2019-04-23T09:28:46.356Z,41.32
2019-04-23T09:31:45.592Z,41.80
2019-04-23T09:34:29.785Z,41.81
2019-04-23T09:36:59.896Z,41.58
2019-04-23T09:39:43.296Z,41.70
2019-04-23T09:42:25.670Z,40.91
2019-04-23T09:45:23.282Z,40.68
2019-04-23T09:53:17.089Z,40.57
2019-04-23T09:55:41.697Z,41.09
2019-04-23T09:58:21.864Z,41.01
2019-04-23T10:01:09.857Z,40.37
2019-04-23T10:03:09.188Z,40.04
2019-04-23T10:05:39.116Z,39.65
2019-04-23T10:08:10.754Z,39.86
2019-04-23T10:10:32.244Z,40.15
2019-04-23T10:13:04.073Z,39.78
2019-04-23T10:15:38.842Z,39.76
2019-04-23T10:18:05.987Z,39.45
2019-04-23T10:20:36.394Z,39.74
2019-04-23T10:23:06.364Z,39.38
2019-04-23T10:25:38.237Z,39.37
2019-04-23T10:28:16.716Z,39.43
2019-04-23T10:30:46.854Z,39.58
2019-04-23T10:33:16.799Z,39.54
2019-04-23T10:35:56.441Z,39.75
2019-04-23T10:38:20.341Z,39.84
2019-04-23T10:40:50.811Z,39.50
2019-04-23T10:43:22.667Z,39.66
2019-04-23T10:46:32.556Z,39.53
2019-04-23T10:52:04.175Z,39.62
2019-04-23T10:54:35.833Z,39.52
2019-04-23T10:56:59.019Z,39.52
2019-04-23T11:02:36.354Z,39.00
2019-04-23T11:04:53.712Z,39.08
2019-04-23T11:07:28.711Z,39.42
2019-04-23T11:12:37.590Z,39.30
2019-04-23T11:15:26.994Z,39.47
2019-04-23T11:17:50.066Z,39.35
2019-04-23T11:20:30.294Z,39.68
2019-04-23T11:25:31.516Z,38.88
2019-04-23T11:28:05.639Z,38.57
2019-04-23T11:35:50.480Z,39.17
2019-04-23T11:38:35.589Z,38.75
2019-04-23T11:40:37.086Z,38.90
2019-04-23T11:45:59.197Z,39.12
2019-04-23T11:53:26.080Z,38.00
2019-04-23T11:55:55.625Z,38.10
2019-04-23T11:58:29.796Z,38.06
2019-04-23T12:01:38.665Z,37.32
2019-04-23T12:04:05.414Z,37.82
2019-04-23T12:06:47.823Z,37.59
2019-04-23T12:09:34.849Z,37.65
2019-04-23T12:17:20.385Z,37.35
2019-04-23T12:20:33.757Z,37.75
2019-04-23T12:22:21.624Z,37.42
2019-04-23T12:27:27.543Z,37.49
2019-04-23T12:29:57.572Z,36.72
2019-04-23T12:37:44.873Z,37.30
2019-04-23T12:45:26.841Z,37.18
2019-04-23T12:53:05.733Z,37.26
2019-04-23T12:58:01.322Z,36.84
2019-04-23T13:03:08.542Z,36.56
2019-04-23T13:05:57.535Z,37.72
2019-04-23T13:08:33.718Z,37.61
2019-04-23T13:10:57.686Z,37.58
2019-04-23T13:13:48.747Z,37.44
2019-04-23T13:16:04.680Z,37.43
2019-04-23T13:21:14.226Z,37.62
2019-04-23T13:23:34.847Z,38.18
2019-04-23T13:26:04.040Z,37.46
2019-04-23T13:33:58.044Z,37.91
2019-04-23T13:36:24.386Z,37.49
2019-04-23T13:38:47.282Z,37.92
2019-04-23T13:41:23.140Z,37.30
2019-04-23T13:44:02.665Z,38.18
2019-04-23T13:46:28.823Z,37.79
2019-04-23T13:48:58.681Z,38.32
2019-04-23T13:51:39.470Z,38.30
2019-04-23T13:54:07.889Z,38.25
2019-04-23T13:59:31.410Z,38.38
2019-04-23T14:01:54.434Z,37.48
2019-04-23T14:06:53.424Z,38.47
2019-04-23T14:09:41.830Z,38.07
2019-04-23T14:11:55.003Z,39.88
2019-04-23T14:14:41.390Z,39.44
2019-04-23T14:17:11.505Z,39.75
2019-04-23T14:19:41.830Z,39.77
2019-04-23T14:22:21.231Z,38.19
2019-04-23T14:27:14.909Z,40.90
2019-04-23T14:29:48.159Z,41.38
2019-04-23T14:32:23.357Z,41.67
2019-04-23T14:34:54.705Z,41.40
2019-04-23T14:37:18.177Z,41.79
2019-04-23T14:39:56.027Z,41.31
2019-04-23T14:42:30.929Z,41.48
2019-04-23T14:45:09.832Z,42.43
2019-04-23T14:47:27.977Z,42.64
2019-04-23T14:50:24.310Z,42.01
2019-04-23T14:52:41.295Z,41.47
2019-04-23T14:58:07.122Z,42.30
2019-04-23T15:00:23.479Z,42.13
2019-04-23T15:02:51.863Z,43.12
2019-04-23T15:05:20.244Z,43.14
2019-04-23T15:07:50.705Z,42.61
2019-04-23T15:13:01.601Z,43.97
2019-04-23T15:15:33.966Z,44.85
2019-04-23T15:18:09.843Z,44.44
2019-04-23T15:20:50.306Z,44.63
2019-04-23T15:26:22.619Z,45.46
2019-04-23T15:28:07.533Z,46.00
2019-04-23T15:31:02.740Z,46.22
2019-04-23T15:33:35.381Z,46.48
2019-04-23T15:36:27.447Z,46.69
2019-04-23T15:41:15.288Z,47.13
2019-04-23T15:43:52.242Z,46.94
2019-04-23T15:46:25.327Z,47.87
2019-04-23T15:49:01.116Z,47.60
2019-04-23T15:51:30.587Z,48.25
2019-04-23T15:53:56.643Z,48.04
2019-04-23T15:56:35.818Z,47.50
2019-04-23T16:01:34.528Z,48.24
2019-04-23T16:03:33.885Z,48.25
2019-04-23T16:06:04.781Z,48.27
2019-04-23T16:16:55.747Z,48.84
2019-04-23T16:24:26.563Z,48.86
2019-04-23T16:27:01.599Z,48.96
2019-04-23T16:32:08.522Z,48.96
2019-04-23T16:34:54.144Z,49.29
2019-04-23T16:37:27.349Z,49.10
2019-04-23T16:40:01.871Z,48.92
2019-04-23T16:42:29.587Z,49.59
2019-04-23T16:48:15.781Z,51.04
2019-04-23T16:50:57.395Z,49.87
2019-04-23T16:53:16.144Z,50.89
2019-04-23T16:58:22.243Z,51.32
2019-04-23T17:03:29.038Z,52.01
2019-04-23T17:13:29.223Z,52.98
2019-04-23T17:16:06.682Z,54.04
2019-04-23T17:18:31.886Z,53.71
2019-04-23T17:20:56.012Z,53.81
2019-04-23T17:26:04.078Z,55.40
2019-04-23T17:28:54.302Z,55.21
2019-04-23T17:31:27.917Z,53.52
2019-04-23T17:33:43.764Z,54.22
2019-04-23T17:39:02.809Z,54.75
2019-04-23T17:41:41.791Z,55.12
2019-04-23T17:44:21.934Z,55.08
2019-04-23T17:49:15.281Z,54.73
2019-04-23T17:51:42.309Z,54.25
2019-04-23T17:54:17.379Z,53.68
2019-04-23T17:56:55.990Z,54.97
2019-04-23T17:59:20.476Z,54.31
2019-04-23T18:02:08.247Z,54.16
2019-04-23T18:04:29.535Z,53.80
2019-04-23T18:06:56.061Z,53.16
2019-04-23T18:12:00.837Z,52.78
2019-04-23T18:14:28.268Z,54.09
2019-04-23T18:17:24.282Z,52.83
2019-04-23T18:19:32.420Z,52.56
2019-04-23T18:22:35.583Z,53.19
2019-04-23T18:25:37.537Z,52.94
2019-04-23T18:36:09.835Z,51.73
2019-04-23T18:41:17.050Z,51.21
2019-04-23T18:43:50.754Z,51.10
2019-04-23T18:46:35.606Z,51.87
2019-04-23T18:49:11.301Z,51.66
2019-04-23T18:51:55.079Z,50.69
2019-04-23T18:54:28.525Z,51.23
2019-04-23T18:59:37.166Z,49.80
2019-04-23T19:02:27.504Z,50.80
2019-04-23T19:05:08.724Z,48.74
2019-04-23T19:07:59.331Z,49.46
2019-04-23T19:13:07.091Z,49.21
2019-04-23T19:15:38.174Z,47.68
2019-04-23T19:18:23.316Z,48.94
2019-04-23T19:23:25.554Z,48.21
2019-04-23T19:25:51.867Z,46.37
2019-04-23T19:28:42.664Z,46.71
2019-04-23T19:34:13.898Z,48.02
2019-04-23T19:39:17.804Z,48.33
2019-04-23T19:46:58.201Z,46.13
2019-04-23T19:51:59.485Z,45.70
2019-04-23T19:54:47.695Z,44.28
2019-04-23T19:57:09.262Z,44.78
2019-04-23T20:02:22.884Z,42.15
2019-04-23T20:04:45.941Z,44.27
2019-04-23T20:07:22.779Z,44.77
2019-04-23T20:09:51.637Z,44.09
2019-04-23T20:12:25.355Z,44.14
2019-04-23T20:14:56.188Z,42.94
2019-04-23T20:20:00.894Z,44.01
2019-04-23T20:22:41.768Z,45.46
2019-04-23T20:30:55.096Z,45.31
2019-04-23T20:36:05.389Z,43.64
2019-04-23T20:38:47.672Z,43.72
2019-04-23T20:41:14.566Z,45.22
2019-04-23T20:43:42.612Z,45.02
2019-04-23T20:46:14.871Z,44.63
2019-04-23T20:48:48.318Z,44.45
2019-04-23T20:51:14.357Z,43.79
2019-04-23T20:53:50.193Z,45.19
2019-04-23T20:56:31.881Z,46.20
2019-04-23T20:59:00.303Z,45.24
2019-04-23T21:01:38.603Z,44.43
2019-04-23T21:04:00.409Z,43.56
2019-04-23T21:06:45.882Z,44.43
2019-04-23T21:11:48.223Z,45.65
2019-04-23T21:14:28.496Z,45.08
2019-04-23T21:19:25.923Z,46.10
2019-04-23T21:22:14.033Z,46.66
2019-04-23T21:24:43.054Z,46.18
2019-04-23T21:27:21.835Z,44.53
2019-04-23T21:29:53.830Z,46.78
2019-04-23T21:32:28.921Z,47.14
2019-04-23T21:34:59.807Z,47.13
2019-04-23T21:37:37.384Z,46.28
2019-04-23T21:40:53.641Z,47.51
2019-04-23T21:43:09.499Z,45.06
2019-04-23T21:45:48.375Z,47.15
2019-04-23T21:48:10.286Z,47.83
2019-04-23T21:50:44.489Z,47.31
2019-04-23T21:53:11.770Z,47.22
2019-04-23T21:55:54.073Z,48.33
2019-04-23T21:58:25.764Z,47.16
2019-04-23T22:00:58.811Z,48.17
2019-04-23T22:03:29.017Z,48.61
2019-04-23T22:06:01.826Z,47.41
2019-04-23T22:08:27.003Z,46.61
2019-04-23T22:11:10.417Z,47.47
2019-04-23T22:16:06.019Z,47.75
2019-04-23T22:18:37.975Z,47.27
2019-04-23T22:21:11.659Z,48.15
2019-04-23T22:23:41.929Z,47.16
2019-04-23T22:28:50.069Z,48.68
2019-04-23T22:32:27.149Z,47.94
2019-04-23T22:33:57.913Z,49.39
2019-04-23T22:36:16.502Z,50.09
2019-04-23T22:38:51.206Z,48.83
2019-04-23T22:41:20.920Z,50.22
2019-04-23T22:44:02.408Z,50.85
2019-04-23T22:46:23.024Z,48.70
2019-04-23T22:49:17.976Z,48.04
2019-04-23T22:51:43.753Z,50.28
2019-04-23T22:56:45.158Z,50.87
2019-04-23T22:59:18.500Z,50.39
2019-04-23T23:01:54.743Z,51.25
2019-04-23T23:11:54.171Z,51.13
2019-04-23T23:14:30.955Z,51.57
2019-04-23T23:16:59.792Z,51.40
2019-04-23T23:19:34.507Z,52.93
2019-04-23T23:22:06.404Z,51.98
2019-04-23T23:24:28.144Z,50.23
2019-04-23T23:27:10.279Z,50.62
2019-04-23T23:29:42.590Z,50.25
2019-04-23T23:32:13.319Z,51.72
2019-04-23T23:34:54.296Z,50.53
2019-04-23T23:37:12.100Z,49.86
2019-04-23T23:40:04.952Z,50.68
2019-04-23T23:47:14.672Z,49.30
2019-04-23T23:49:55.798Z,50.68
2019-04-23T23:52:22.023Z,50.70
2019-04-23T23:54:53.108Z,51.84
